createdAt,value
2017-12-23T00:00:39.633Z,4.50
2017-12-23T00:03:07.473Z,4.60
2017-12-23T00:05:34.989Z,4.45
2017-12-23T00:08:02.494Z,3.47
2017-12-23T00:10:30.699Z,5.05
2017-12-23T00:12:58.213Z,3.97
2017-12-23T00:15:25.746Z,4.07
2017-12-23T00:17:53.479Z,2.47
2017-12-23T00:20:21.039Z,3.00
2017-12-23T00:22:48.551Z,2.67
2017-12-23T00:25:16.117Z,3.03
2017-12-23T00:27:43.637Z,2.55
2017-12-23T00:30:11.145Z,2.70
2017-12-23T00:32:38.977Z,3.28
2017-12-23T00:35:06.500Z,3.70
2017-12-23T00:37:34.073Z,3.90
2017-12-23T00:40:01.827Z,4.40
2017-12-23T00:42:29.385Z,4.20
2017-12-23T00:44:57.868Z,4.60
2017-12-23T00:47:25.713Z,4.57
2017-12-23T00:49:53.216Z,5.03
2017-12-23T00:52:20.754Z,5.37
2017-12-23T00:54:48.496Z,6.70
2017-12-23T00:57:16.001Z,6.12
2017-12-23T00:59:43.511Z,5.90
2017-12-23T01:02:11.200Z,6.75
2017-12-23T01:04:38.804Z,7.32
2017-12-23T01:07:06.314Z,6.20
2017-12-23T01:09:33.908Z,5.93
2017-12-23T01:12:01.442Z,5.37
2017-12-23T01:14:28.944Z,5.03
2017-12-23T01:16:56.524Z,5.00
2017-12-23T01:19:24.026Z,5.37
2017-12-23T01:21:51.580Z,4.87
2017-12-23T01:24:19.113Z,3.42
2017-12-23T01:26:46.612Z,4.18
2017-12-23T01:29:14.164Z,3.62
2017-12-23T01:31:42.127Z,4.28
2017-12-23T01:34:09.676Z,3.53
2017-12-23T01:36:37.180Z,3.42
2017-12-23T01:39:04.910Z,3.70
2017-12-23T01:41:32.470Z,4.00
2017-12-23T01:43:59.978Z,3.30
2017-12-23T01:46:27.519Z,3.70
2017-12-23T01:48:55.046Z,4.40
2017-12-23T01:51:22.545Z,3.42
2017-12-23T01:53:50.073Z,3.90
2017-12-23T01:56:17.624Z,4.45
2017-12-23T01:58:45.122Z,4.10
2017-12-23T02:01:12.816Z,3.97
2017-12-23T02:03:40.316Z,3.17
2017-12-23T02:06:07.813Z,3.15
2017-12-23T02:08:35.625Z,3.45
2017-12-23T02:11:03.186Z,2.97
2017-12-23T02:13:31.154Z,3.30
2017-12-23T02:15:58.892Z,4.40
2017-12-23T02:18:26.397Z,3.80
2017-12-23T02:20:53.934Z,4.40
2017-12-23T02:23:21.470Z,3.67
2017-12-23T02:25:49.003Z,3.72
2017-12-23T02:28:16.500Z,5.05
2017-12-23T02:30:44.276Z,4.80
2017-12-23T02:33:11.778Z,4.87
2017-12-23T02:35:39.600Z,5.65
2017-12-23T02:38:07.539Z,5.45
2017-12-23T02:40:35.537Z,5.30
2017-12-23T02:43:03.094Z,4.87
2017-12-23T02:45:30.730Z,5.12
2017-12-23T02:47:58.240Z,4.90
2017-12-23T02:50:25.809Z,5.80
2017-12-23T02:52:53.541Z,6.07
2017-12-23T02:55:21.098Z,6.35
2017-12-23T02:57:48.757Z,6.18
2017-12-23T03:00:16.324Z,6.07
2017-12-23T03:02:43.829Z,6.65
2017-12-23T03:05:11.341Z,6.57
2017-12-23T03:07:38.911Z,7.37
2017-12-23T03:10:06.450Z,6.40
2017-12-23T03:12:33.958Z,8.40
2017-12-23T03:15:01.644Z,8.05
2017-12-23T03:17:29.228Z,6.45
2017-12-23T03:19:56.733Z,7.00
2017-12-23T03:22:24.448Z,6.60
2017-12-23T03:24:51.957Z,6.57
2017-12-23T03:27:19.471Z,6.70
2017-12-23T03:29:47.227Z,6.72
2017-12-23T03:32:14.736Z,5.93
2017-12-23T03:34:42.245Z,6.37
2017-12-23T03:37:09.789Z,6.45
2017-12-23T03:39:37.298Z,6.85
2017-12-23T03:42:04.805Z,6.30
2017-12-23T03:44:32.684Z,6.25
2017-12-23T03:47:00.193Z,6.78
2017-12-23T03:49:27.700Z,7.05
2017-12-23T03:51:55.300Z,6.12
2017-12-23T03:54:22.808Z,5.60
2017-12-23T03:56:50.322Z,6.95
2017-12-23T03:59:17.870Z,6.72
2017-12-23T04:01:45.387Z,7.07
2017-12-23T04:04:12.905Z,7.25
2017-12-23T04:06:41.324Z,7.90
2017-12-23T04:09:08.831Z,8.32
2017-12-23T04:11:36.334Z,9.30
2017-12-23T04:14:03.896Z,8.82
2017-12-23T04:16:31.409Z,8.30
2017-12-23T04:18:58.922Z,9.02
2017-12-23T04:21:26.705Z,8.05
2017-12-23T04:23:54.237Z,9.25
2017-12-23T04:26:21.824Z,10.50
2017-12-23T04:28:49.760Z,8.55
2017-12-23T04:31:17.269Z,9.95
2017-12-23T04:33:44.772Z,9.70
2017-12-23T04:36:13.694Z,8.85
2017-12-23T04:38:41.228Z,11.48
2017-12-23T04:41:08.781Z,11.60
2017-12-23T04:43:36.321Z,10.77
2017-12-23T04:46:03.888Z,11.23
2017-12-23T04:48:32.357Z,10.07
2017-12-23T04:51:00.141Z,9.73
2017-12-23T04:53:27.701Z,9.13
2017-12-23T04:55:55.209Z,9.60
2017-12-23T04:58:23.044Z,10.15
2017-12-23T05:00:50.561Z,10.38
2017-12-23T05:03:18.070Z,9.60
2017-12-23T05:05:45.781Z,10.63
2017-12-23T05:08:13.360Z,9.90
2017-12-23T05:10:42.008Z,8.30
2017-12-23T05:13:09.547Z,9.38
2017-12-23T05:15:37.061Z,8.85
2017-12-23T05:18:04.576Z,9.18
2017-12-23T05:20:32.176Z,9.90
2017-12-23T05:22:59.676Z,9.35
2017-12-23T05:25:27.278Z,9.13
2017-12-23T05:27:55.030Z,7.82
2017-12-23T05:30:22.552Z,8.88
2017-12-23T05:32:50.073Z,9.23
2017-12-23T05:35:17.737Z,9.05
2017-12-23T05:37:45.256Z,8.57
2017-12-23T05:40:12.761Z,9.25
2017-12-23T05:42:40.332Z,10.93
2017-12-23T05:45:07.866Z,9.65
2017-12-23T05:47:35.374Z,10.07
2017-12-23T05:50:02.917Z,9.40
2017-12-23T05:52:30.425Z,8.43
2017-12-23T05:54:57.933Z,9.68
2017-12-23T05:57:25.490Z,8.70
2017-12-23T05:59:52.997Z,9.95
2017-12-23T06:02:20.497Z,9.35
2017-12-23T06:04:48.337Z,10.10
2017-12-23T06:07:15.899Z,10.15
2017-12-23T06:09:43.404Z,9.82
2017-12-23T06:12:10.964Z,9.95
2017-12-23T06:17:11.182Z,9.60
2017-12-23T06:19:38.729Z,10.55
2017-12-23T06:22:06.267Z,10.93
2017-12-23T06:24:33.804Z,9.85
2017-12-23T06:27:01.326Z,11.00
2017-12-23T06:29:28.846Z,9.82
2017-12-23T06:31:56.609Z,9.80
2017-12-23T06:34:24.166Z,11.07
2017-12-23T06:36:51.730Z,10.20
2017-12-23T06:39:19.385Z,9.68
2017-12-23T06:41:46.970Z,12.10
2017-12-23T06:44:14.505Z,11.15
2017-12-23T06:46:42.268Z,9.48
2017-12-23T06:49:09.834Z,10.18
2017-12-23T06:51:37.345Z,9.88
2017-12-23T06:54:05.173Z,9.75
2017-12-23T06:56:32.811Z,10.98
2017-12-23T06:59:00.321Z,10.50
2017-12-23T07:01:28.009Z,10.60
2017-12-23T07:03:55.521Z,11.02
2017-12-23T07:06:23.037Z,10.77
2017-12-23T07:08:50.612Z,10.23
2017-12-23T07:11:18.118Z,10.20
2017-12-23T07:13:45.626Z,8.60
2017-12-23T07:16:13.764Z,10.15
2017-12-23T07:18:41.273Z,10.00
2017-12-23T07:21:08.821Z,8.63
2017-12-23T07:23:36.524Z,8.95
2017-12-23T07:26:04.029Z,8.85
2017-12-23T07:28:31.544Z,10.18
2017-12-23T07:30:59.093Z,9.38
2017-12-23T07:33:26.606Z,10.48
2017-12-23T07:35:54.169Z,9.90
2017-12-23T07:38:22.035Z,11.10
2017-12-23T07:40:49.556Z,11.15
2017-12-23T07:43:17.078Z,10.63
2017-12-23T07:45:44.646Z,11.27
2017-12-23T07:48:12.170Z,11.12
2017-12-23T07:50:39.732Z,10.48
2017-12-23T07:53:07.376Z,10.93
2017-12-23T07:55:34.897Z,10.52
2017-12-23T07:58:02.409Z,10.35
2017-12-23T08:00:30.273Z,10.30
2017-12-23T08:02:57.782Z,10.65
2017-12-23T08:05:25.310Z,9.32
2017-12-23T08:07:53.148Z,10.02
2017-12-23T08:10:20.653Z,8.13
2017-12-23T08:12:48.166Z,10.20
2017-12-23T08:15:15.936Z,9.88
2017-12-23T08:17:43.496Z,10.40
2017-12-23T08:20:11.006Z,9.82
2017-12-23T08:22:38.545Z,9.68
2017-12-23T08:25:06.062Z,10.15
2017-12-23T08:27:33.569Z,9.95
2017-12-23T08:30:01.292Z,10.00
2017-12-23T08:32:28.893Z,10.25
2017-12-23T08:34:56.410Z,10.70
2017-12-23T08:37:24.175Z,9.80
2017-12-23T08:39:51.688Z,9.70
2017-12-23T08:42:19.204Z,9.35
2017-12-23T08:44:46.749Z,10.32
2017-12-23T08:47:14.256Z,9.70
2017-12-23T08:49:41.788Z,9.13
2017-12-23T08:52:09.333Z,9.00
2017-12-23T08:54:37.714Z,10.30
2017-12-23T08:57:05.224Z,9.50
2017-12-23T08:59:33.149Z,11.40
2017-12-23T09:02:00.696Z,11.20
2017-12-23T09:04:28.293Z,10.30
2017-12-23T09:06:56.125Z,10.48
2017-12-23T09:09:23.673Z,10.90
2017-12-23T09:11:51.193Z,10.07
2017-12-23T09:14:19.098Z,11.68
2017-12-23T09:16:46.610Z,10.65
2017-12-23T09:19:14.154Z,11.40
2017-12-23T09:21:41.840Z,10.02
2017-12-23T09:24:09.345Z,9.93
2017-12-23T09:26:37.223Z,11.93
2017-12-23T09:29:04.967Z,10.57
2017-12-23T09:31:32.503Z,9.55
2017-12-23T09:34:00.013Z,9.00
2017-12-23T09:36:27.726Z,8.90
2017-12-23T09:38:55.250Z,8.95
2017-12-23T09:41:22.769Z,7.35
2017-12-23T09:43:51.291Z,7.45
2017-12-23T09:46:18.855Z,7.87
2017-12-23T09:48:46.384Z,7.90
2017-12-23T09:51:14.227Z,6.75
2017-12-23T09:53:41.786Z,6.95
2017-12-23T09:56:09.345Z,8.10
2017-12-23T09:58:37.108Z,7.75
2017-12-23T10:01:04.668Z,6.80
2017-12-23T10:03:32.178Z,6.65
2017-12-23T10:05:59.992Z,6.30
2017-12-23T10:08:27.938Z,6.60
2017-12-23T10:10:55.929Z,7.68
2017-12-23T10:13:23.673Z,6.93
2017-12-23T10:15:51.221Z,6.00
2017-12-23T10:18:18.739Z,6.57
2017-12-23T10:20:46.471Z,5.82
2017-12-23T10:23:14.034Z,5.80
2017-12-23T10:25:41.543Z,5.18
2017-12-23T10:28:09.456Z,5.97
2017-12-23T10:30:36.970Z,6.12
2017-12-23T10:33:04.677Z,6.35
2017-12-23T10:35:33.290Z,5.57
2017-12-23T10:38:00.803Z,5.60
2017-12-23T10:40:28.315Z,4.62
2017-12-23T10:42:55.889Z,5.10
2017-12-23T10:45:23.397Z,5.72
2017-12-23T10:47:51.875Z,6.35
2017-12-23T10:50:19.465Z,6.30
2017-12-23T10:52:46.973Z,6.03
2017-12-23T10:55:14.522Z,5.75
2017-12-23T10:57:42.081Z,6.95
2017-12-23T11:00:09.605Z,6.50
2017-12-23T11:02:37.231Z,7.28
2017-12-23T11:05:04.882Z,7.15
2017-12-23T11:07:32.433Z,6.43
2017-12-23T11:10:00.011Z,6.80
2017-12-23T11:12:27.754Z,6.50
2017-12-23T11:14:55.277Z,6.12
2017-12-23T11:17:22.824Z,5.68
2017-12-23T11:19:50.553Z,6.60
2017-12-23T11:22:18.166Z,5.90
2017-12-23T11:24:45.686Z,5.90
2017-12-23T11:27:13.333Z,5.43
2017-12-23T11:29:40.994Z,6.32
2017-12-23T11:32:08.710Z,5.18
2017-12-23T11:34:36.496Z,4.90
2017-12-23T11:37:04.593Z,5.00
2017-12-23T11:39:32.254Z,4.80
2017-12-23T11:41:59.916Z,4.80
2017-12-23T11:44:27.577Z,4.10
2017-12-23T11:46:55.168Z,4.22
2017-12-23T11:49:22.900Z,4.93
2017-12-23T11:51:50.460Z,4.90
2017-12-23T11:54:17.971Z,6.03
2017-12-23T11:56:45.789Z,6.10
2017-12-23T11:59:13.374Z,5.53
2017-12-23T12:01:41.003Z,8.18
2017-12-23T12:04:08.577Z,6.30
2017-12-23T12:06:36.194Z,6.68
2017-12-23T12:09:03.709Z,7.43
2017-12-23T12:11:31.553Z,7.60
2017-12-23T12:13:59.149Z,5.90
2017-12-23T12:16:26.687Z,4.72
2017-12-23T12:18:54.421Z,5.87
2017-12-23T12:21:21.994Z,5.50
2017-12-23T12:23:49.652Z,5.35
2017-12-23T12:26:17.414Z,3.97
2017-12-23T12:28:44.973Z,2.97
2017-12-23T12:31:12.565Z,1.58
2017-12-23T12:33:40.555Z,1.75
2017-12-23T12:36:08.244Z,2.95
2017-12-23T12:38:35.988Z,1.48
2017-12-23T12:41:03.689Z,1.50
2017-12-23T12:43:31.351Z,1.42
2017-12-23T12:45:59.011Z,1.85
2017-12-23T12:48:26.749Z,1.90
2017-12-23T12:50:54.263Z,1.45
2017-12-23T12:53:21.793Z,1.60
2017-12-23T12:55:50.170Z,1.70
2017-12-23T12:58:17.731Z,1.77
2017-12-23T13:00:45.287Z,2.17
2017-12-23T13:03:13.460Z,2.05
2017-12-23T13:05:42.043Z,2.20
2017-12-23T13:08:09.884Z,2.65
2017-12-23T13:10:37.684Z,2.60
2017-12-23T13:13:06.160Z,3.37
2017-12-23T13:15:33.886Z,3.12
2017-12-23T13:18:01.684Z,2.90
2017-12-23T13:20:29.456Z,3.50
2017-12-23T13:22:57.292Z,1.90
2017-12-23T13:25:25.387Z,1.85
2017-12-23T13:27:54.598Z,2.42
2017-12-23T13:30:22.451Z,2.33
2017-12-23T13:32:50.681Z,3.00
2017-12-23T13:35:18.386Z,2.30
2017-12-23T13:37:46.046Z,1.95
2017-12-23T13:40:14.322Z,2.65
2017-12-23T13:42:41.881Z,2.10
2017-12-23T13:45:09.532Z,2.40
2017-12-23T13:47:37.817Z,2.75
2017-12-23T13:50:05.788Z,2.28
2017-12-23T13:52:34.269Z,1.98
2017-12-23T13:55:02.134Z,2.22
2017-12-23T13:57:29.773Z,2.20
2017-12-23T13:59:57.558Z,2.67
2017-12-23T14:02:25.527Z,2.60
2017-12-23T14:04:53.292Z,3.95
2017-12-23T14:07:21.055Z,18.40
2017-12-23T14:09:48.824Z,3.00
2017-12-23T14:12:16.582Z,3.65
2017-12-23T14:14:44.449Z,4.03
2017-12-23T14:17:12.035Z,3.53
2017-12-23T14:19:39.829Z,3.53
2017-12-23T14:22:08.255Z,5.60
2017-12-23T14:24:36.260Z,4.78
2017-12-23T14:27:04.088Z,5.95
2017-12-23T14:29:31.601Z,5.72
2017-12-23T14:31:59.512Z,4.78
2017-12-23T14:34:27.295Z,5.53
2017-12-23T14:36:54.993Z,6.20
2017-12-23T14:39:22.871Z,4.90
2017-12-23T14:41:50.377Z,7.22
2017-12-23T14:44:18.128Z,5.00
2017-12-23T14:46:45.861Z,6.20
2017-12-23T14:49:13.552Z,5.65
2017-12-23T14:51:41.112Z,4.60
2017-12-23T14:54:08.670Z,3.97
2017-12-23T14:56:36.401Z,4.00
2017-12-23T14:59:03.922Z,3.97
2017-12-23T15:01:31.711Z,5.00
2017-12-23T15:03:59.225Z,4.47
2017-12-23T15:06:26.773Z,3.90
2017-12-23T15:08:54.740Z,3.85
2017-12-23T15:11:22.331Z,2.25
2017-12-23T15:13:49.859Z,4.05
2017-12-23T15:16:17.889Z,4.05
2017-12-23T15:18:45.357Z,2.97
2017-12-23T15:21:12.876Z,3.00
2017-12-23T15:23:40.607Z,3.30
2017-12-23T15:26:08.161Z,3.42
2017-12-23T15:28:35.666Z,2.95
2017-12-23T15:31:03.556Z,2.62
2017-12-23T15:33:31.064Z,3.10
2017-12-23T15:35:58.608Z,2.90
2017-12-23T15:38:26.176Z,3.33
2017-12-23T15:40:53.681Z,3.62
2017-12-23T15:43:21.186Z,2.75
2017-12-23T15:45:49.021Z,2.67
2017-12-23T15:48:16.713Z,3.30
2017-12-23T15:50:44.226Z,2.30
2017-12-23T15:53:12.006Z,3.78
2017-12-23T15:55:39.511Z,3.10
2017-12-23T15:58:07.049Z,3.42
2017-12-23T16:00:34.605Z,3.17
2017-12-23T16:03:02.118Z,3.10
2017-12-23T16:05:29.634Z,2.90
2017-12-23T16:07:57.578Z,3.22
2017-12-23T16:10:25.082Z,3.28
2017-12-23T16:12:52.593Z,3.70
2017-12-23T16:15:20.313Z,2.58
2017-12-23T16:17:47.835Z,3.30
2017-12-23T16:20:15.389Z,3.53
2017-12-23T16:22:42.939Z,3.53
2017-12-23T16:25:10.446Z,3.05
2017-12-23T16:27:37.963Z,3.28
2017-12-23T16:30:05.974Z,3.55
2017-12-23T16:32:33.594Z,4.00
2017-12-23T16:35:01.193Z,4.10
2017-12-23T16:37:29.107Z,2.97
2017-12-23T16:39:56.614Z,2.95
2017-12-23T16:42:24.137Z,3.17
2017-12-23T16:44:51.946Z,4.25
2017-12-23T16:47:19.665Z,3.65
2017-12-23T16:49:47.325Z,3.37
2017-12-23T16:52:15.114Z,3.33
2017-12-23T16:54:42.672Z,2.92
2017-12-23T16:57:10.187Z,2.87
2017-12-23T16:59:37.768Z,3.58
2017-12-23T17:02:05.327Z,4.30
2017-12-23T17:04:32.888Z,4.32
2017-12-23T17:07:00.542Z,4.15
2017-12-23T17:09:28.046Z,2.97
2017-12-23T17:11:55.555Z,3.40
2017-12-23T17:14:23.223Z,3.65
2017-12-23T17:16:50.792Z,3.60
2017-12-23T17:19:18.342Z,3.45
2017-12-23T17:21:46.096Z,3.90
2017-12-23T17:24:13.605Z,3.83
2017-12-23T17:26:41.172Z,3.42
2017-12-23T17:29:20.662Z,3.30
2017-12-23T17:31:48.165Z,3.92
2017-12-23T17:34:15.780Z,4.00
2017-12-23T17:36:43.542Z,3.78
2017-12-23T17:39:11.059Z,3.70
2017-12-23T17:41:38.560Z,4.28
2017-12-23T17:44:06.129Z,3.03
2017-12-23T17:46:33.633Z,3.30
2017-12-23T17:49:01.237Z,4.20
2017-12-23T17:51:28.806Z,4.72
2017-12-23T17:53:56.450Z,5.10
2017-12-23T17:56:24.023Z,5.78
2017-12-23T17:58:51.662Z,4.70
2017-12-23T18:01:19.236Z,5.37
2017-12-23T18:03:46.830Z,4.90
2017-12-23T18:06:14.541Z,4.75
2017-12-23T18:08:42.221Z,3.97
2017-12-23T18:11:09.845Z,5.62
2017-12-23T18:13:37.648Z,5.40
2017-12-23T18:16:05.411Z,4.82
2017-12-23T18:18:33.278Z,6.10
2017-12-23T18:21:01.758Z,4.55
2017-12-23T18:23:29.537Z,5.62
2017-12-23T18:25:57.389Z,5.25
2017-12-23T18:28:25.254Z,5.50
2017-12-23T18:30:53.031Z,5.90
2017-12-23T18:33:20.644Z,4.80
2017-12-23T18:35:48.751Z,5.32
2017-12-23T18:38:16.618Z,6.18
2017-12-23T18:40:44.480Z,5.45
2017-12-23T18:43:12.196Z,5.78
2017-12-23T18:45:39.908Z,5.70
2017-12-23T18:48:07.481Z,5.70
2017-12-23T18:50:35.118Z,5.70
2017-12-23T18:53:02.791Z,4.97
2017-12-23T18:55:30.349Z,5.30
2017-12-23T18:57:58.095Z,5.20
2017-12-23T19:00:25.775Z,6.40
2017-12-23T19:02:53.436Z,5.50
2017-12-23T19:05:21.406Z,4.93
2017-12-23T19:07:48.937Z,6.05
2017-12-23T19:10:16.453Z,5.87
2017-12-23T19:12:44.177Z,5.35
2017-12-23T19:15:11.688Z,4.62
2017-12-23T19:17:39.509Z,4.75
2017-12-23T19:20:07.271Z,4.95
2017-12-23T19:22:34.832Z,6.00
2017-12-23T19:25:02.404Z,5.28
2017-12-23T19:27:30.627Z,5.40
2017-12-23T19:29:58.429Z,4.60
2017-12-23T19:32:26.091Z,5.90
2017-12-23T19:34:53.900Z,5.68
2017-12-23T19:37:21.469Z,5.50
2017-12-23T19:39:49.075Z,4.78
2017-12-23T19:42:16.918Z,5.28
2017-12-23T19:44:44.608Z,5.30
2017-12-23T19:47:12.333Z,4.50
2017-12-23T19:49:39.966Z,5.68
2017-12-23T19:52:07.499Z,5.57
2017-12-23T19:54:35.043Z,3.95
2017-12-23T19:57:02.852Z,3.55
2017-12-23T19:59:30.397Z,3.45
2017-12-23T20:01:58.029Z,2.62
2017-12-23T20:04:26.006Z,2.80
2017-12-23T20:06:53.557Z,2.83
2017-12-23T20:09:21.114Z,3.20
2017-12-23T20:11:48.879Z,2.60
2017-12-23T20:14:16.474Z,2.42
2017-12-23T20:16:43.996Z,2.28
2017-12-23T20:19:11.756Z,2.22
2017-12-23T20:21:39.281Z,2.58
2017-12-23T20:24:06.789Z,3.00
2017-12-23T20:26:34.361Z,1.95
2017-12-23T20:29:02.099Z,2.30
2017-12-23T20:31:29.726Z,2.30
2017-12-23T20:33:57.599Z,1.95
2017-12-23T20:36:25.121Z,2.70
2017-12-23T20:38:52.655Z,2.35
2017-12-23T20:41:20.541Z,2.12
2017-12-23T20:43:48.068Z,2.60
2017-12-23T20:46:15.574Z,3.40
2017-12-23T20:48:43.421Z,2.30
2017-12-23T20:51:10.979Z,2.40
2017-12-23T20:53:38.510Z,2.30
2017-12-23T20:56:06.275Z,2.83
2017-12-23T20:58:33.831Z,2.67
2017-12-23T21:01:01.344Z,2.37
2017-12-23T21:03:29.172Z,2.15
2017-12-23T21:05:56.693Z,2.25
2017-12-23T21:08:24.198Z,2.87
2017-12-23T21:10:51.740Z,2.40
2017-12-23T21:13:19.237Z,2.60
2017-12-23T21:15:46.798Z,2.65
2017-12-23T21:18:14.400Z,3.10
2017-12-23T21:20:41.905Z,3.35
2017-12-23T21:23:09.423Z,4.40
2017-12-23T21:25:37.084Z,3.65
2017-12-23T21:28:04.850Z,6.37
2017-12-23T21:30:32.414Z,4.65
2017-12-23T21:33:00.101Z,4.07
2017-12-23T21:35:27.627Z,4.87
2017-12-23T21:37:55.252Z,4.10
2017-12-23T21:40:23.156Z,4.05
2017-12-23T21:42:51.637Z,3.83
2017-12-23T21:45:19.197Z,3.60
2017-12-23T21:47:46.897Z,4.70
2017-12-23T21:50:14.401Z,4.00
2017-12-23T21:52:41.975Z,4.70
2017-12-23T21:55:09.534Z,5.45
2017-12-23T21:57:37.048Z,4.30
2017-12-23T22:00:04.557Z,3.20
2017-12-23T22:02:32.212Z,3.28
2017-12-23T22:04:59.873Z,3.65
2017-12-23T22:07:27.384Z,2.97
2017-12-23T22:09:54.957Z,3.00
2017-12-23T22:12:23.684Z,3.10
2017-12-23T22:14:51.235Z,3.33
2017-12-23T22:17:18.814Z,3.12
2017-12-23T22:19:47.251Z,3.80
2017-12-23T22:22:14.773Z,3.05
2017-12-23T22:24:42.497Z,3.00
2017-12-23T22:27:10.006Z,3.12
2017-12-23T22:29:37.519Z,3.47
2017-12-23T22:32:05.153Z,3.58
2017-12-23T22:34:32.714Z,3.40
2017-12-23T22:37:00.236Z,3.72
2017-12-23T22:39:28.157Z,4.05
2017-12-23T22:41:55.677Z,2.70
2017-12-23T22:44:23.189Z,2.58
2017-12-23T22:46:50.745Z,2.37
2017-12-23T22:49:18.253Z,2.53
2017-12-23T22:51:45.758Z,2.10
2017-12-23T22:54:13.320Z,2.33
2017-12-23T22:56:40.822Z,2.05
2017-12-23T22:59:08.329Z,2.45
2017-12-23T23:01:36.265Z,2.90
2017-12-23T23:04:04.253Z,3.03
2017-12-23T23:06:31.758Z,2.78
2017-12-23T23:08:59.317Z,2.40
2017-12-23T23:11:26.823Z,1.75
2017-12-23T23:13:54.336Z,1.30
2017-12-23T23:16:21.878Z,1.80
2017-12-23T23:18:49.546Z,1.85
2017-12-23T23:21:17.072Z,1.98
2017-12-23T23:23:45.041Z,1.70
2017-12-23T23:26:12.546Z,2.20
2017-12-23T23:28:40.056Z,1.85
2017-12-23T23:31:07.762Z,1.90
2017-12-23T23:33:35.270Z,1.58
2017-12-23T23:36:02.783Z,1.95
2017-12-23T23:38:30.464Z,2.10
2017-12-23T23:40:58.040Z,1.80
2017-12-23T23:43:25.615Z,2.30
2017-12-23T23:45:53.174Z,1.77
2017-12-23T23:48:20.683Z,2.15
2017-12-23T23:50:48.186Z,2.08
2017-12-23T23:53:15.733Z,1.83
2017-12-23T23:55:43.237Z,2.25
2017-12-23T23:58:10.746Z,1.90
